sensor_id;sensor_type;location;lat;lon;timestamp;P1;durP1;ratioP1;P2;durP2;ratioP2
11394;SDS011;5753;54.402;10.220;2022-11-06T00:01:37;12.35;;;9.85;;
11394;SDS011;5753;54.402;10.220;2022-11-06T00:04:04;14.02;;;8.60;;
11394;SDS011;5753;54.402;10.220;2022-11-06T00:06:30;22.85;;;10.05;;
11394;SDS011;5753;54.402;10.220;2022-11-06T00:09:14;14.07;;;9.30;;
11394;SDS011;5753;54.402;10.220;2022-11-06T00:11:42;13.20;;;10.57;;
11394;SDS011;5753;54.402;10.220;2022-11-06T00:14:08;10.98;;;8.15;;
11394;SDS011;5753;54.402;10.220;2022-11-06T00:16:36;15.00;;;10.40;;
11394;SDS011;5753;54.402;10.220;2022-11-06T00:19:03;14.10;;;9.23;;
11394;SDS011;5753;54.402;10.220;2022-11-06T00:21:30;11.48;;;9.35;;
11394;SDS011;5753;54.402;10.220;2022-11-06T00:23:57;16.70;;;10.63;;
11394;SDS011;5753;54.402;10.220;2022-11-06T00:26:25;20.20;;;11.00;;
11394;SDS011;5753;54.402;10.220;2022-11-06T00:28:53;18.10;;;9.10;;
11394;SDS011;5753;54.402;10.220;2022-11-06T00:31:20;14.50;;;9.85;;
11394;SDS011;5753;54.402;10.220;2022-11-06T00:33:48;15.95;;;10.30;;
11394;SDS011;5753;54.402;10.220;2022-11-06T00:36:15;11.70;;;9.77;;
11394;SDS011;5753;54.402;10.220;2022-11-06T00:38:43;18.05;;;8.60;;
11394;SDS011;5753;54.402;10.220;2022-11-06T00:41:13;12.73;;;8.90;;
11394;SDS011;5753;54.402;10.220;2022-11-06T00:43:40;16.25;;;9.23;;
11394;SDS011;5753;54.402;10.220;2022-11-06T00:46:08;12.75;;;9.43;;
11394;SDS011;5753;54.402;10.220;2022-11-06T00:48:36;13.80;;;8.63;;
11394;SDS011;5753;54.402;10.220;2022-11-06T00:51:04;14.70;;;9.75;;
11394;SDS011;5753;54.402;10.220;2022-11-06T00:53:32;10.00;;;8.85;;
11394;SDS011;5753;54.402;10.220;2022-11-06T00:56:05;17.55;;;10.60;;
11394;SDS011;5753;54.402;10.220;2022-11-06T00:58:39;14.77;;;10.35;;
11394;SDS011;5753;54.402;10.220;2022-11-06T01:01:10;19.67;;;9.93;;
11394;SDS011;5753;54.402;10.220;2022-11-06T01:03:42;14.73;;;9.60;;
11394;SDS011;5753;54.402;10.220;2022-11-06T01:06:11;14.43;;;9.25;;
11394;SDS011;5753;54.402;10.220;2022-11-06T01:08:39;9.73;;;7.53;;
11394;SDS011;5753;54.402;10.220;2022-11-06T01:11:10;12.13;;;9.20;;
11394;SDS011;5753;54.402;10.220;2022-11-06T01:13:45;11.70;;;8.98;;
11394;SDS011;5753;54.402;10.220;2022-11-06T01:16:15;10.98;;;7.68;;
11394;SDS011;5753;54.402;10.220;2022-11-06T01:18:42;16.35;;;7.60;;
11394;SDS011;5753;54.402;10.220;2022-11-06T01:21:11;19.90;;;9.10;;
11394;SDS011;5753;54.402;10.220;2022-11-06T01:23:39;12.73;;;7.32;;
11394;SDS011;5753;54.402;10.220;2022-11-06T01:26:06;10.43;;;9.40;;
11394;SDS011;5753;54.402;10.220;2022-11-06T01:28:33;8.05;;;6.68;;
11394;SDS011;5753;54.402;10.220;2022-11-06T01:31:07;9.48;;;7.75;;
11394;SDS011;5753;54.402;10.220;2022-11-06T01:33:38;12.27;;;8.20;;
11394;SDS011;5753;54.402;10.220;2022-11-06T01:36:04;11.95;;;8.93;;
11394;SDS011;5753;54.402;10.220;2022-11-06T01:38:32;15.57;;;7.80;;
11394;SDS011;5753;54.402;10.220;2022-11-06T01:40:59;12.68;;;8.57;;
11394;SDS011;5753;54.402;10.220;2022-11-06T01:43:42;11.50;;;8.80;;
11394;SDS011;5753;54.402;10.220;2022-11-06T01:46:14;10.02;;;8.25;;
11394;SDS011;5753;54.402;10.220;2022-11-06T01:48:42;13.25;;;8.02;;
11394;SDS011;5753;54.402;10.220;2022-11-06T01:53:41;9.45;;;6.85;;
11394;SDS011;5753;54.402;10.220;2022-11-06T01:56:08;12.50;;;6.90;;
11394;SDS011;5753;54.402;10.220;2022-11-06T01:58:37;12.00;;;7.60;;
11394;SDS011;5753;54.402;10.220;2022-11-06T02:01:06;20.23;;;9.23;;
11394;SDS011;5753;54.402;10.220;2022-11-06T02:03:32;10.30;;;6.28;;
11394;SDS011;5753;54.402;10.220;2022-11-06T02:06:00;20.05;;;6.70;;
11394;SDS011;5753;54.402;10.220;2022-11-06T02:08:28;7.25;;;5.78;;
11394;SDS011;5753;54.402;10.220;2022-11-06T02:10:55;5.57;;;4.90;;
11394;SDS011;5753;54.402;10.220;2022-11-06T02:13:26;10.82;;;7.88;;
11394;SDS011;5753;54.402;10.220;2022-11-06T02:22:36;10.13;;;7.25;;
11394;SDS011;5753;54.402;10.220;2022-11-06T02:27:38;8.13;;;5.57;;
11394;SDS011;5753;54.402;10.220;2022-11-06T02:30:27;6.43;;;4.88;;
11394;SDS011;5753;54.402;10.220;2022-11-06T02:32:59;14.30;;;6.85;;
11394;SDS011;5753;54.402;10.220;2022-11-06T02:38:07;6.90;;;5.07;;
11394;SDS011;5753;54.402;10.220;2022-11-06T02:40:43;11.20;;;5.50;;
11394;SDS011;5753;54.402;10.220;2022-11-06T02:43:14;7.60;;;5.00;;
11394;SDS011;5753;54.402;10.220;2022-11-06T02:46:04;8.82;;;5.55;;
11394;SDS011;5753;54.402;10.220;2022-11-06T02:48:36;7.18;;;6.10;;
11394;SDS011;5753;54.402;10.220;2022-11-06T02:51:09;9.02;;;6.07;;
11394;SDS011;5753;54.402;10.220;2022-11-06T02:53:38;7.97;;;5.47;;
11394;SDS011;5753;54.402;10.220;2022-11-06T02:56:09;12.40;;;5.85;;
11394;SDS011;5753;54.402;10.220;2022-11-06T02:58:46;8.50;;;4.97;;
11394;SDS011;5753;54.402;10.220;2022-11-06T03:01:25;7.38;;;4.32;;
11394;SDS011;5753;54.402;10.220;2022-11-06T03:03:56;7.63;;;5.25;;
11394;SDS011;5753;54.402;10.220;2022-11-06T03:06:49;4.93;;;4.32;;
11394;SDS011;5753;54.402;10.220;2022-11-06T03:09:21;4.50;;;4.10;;
11394;SDS011;5753;54.402;10.220;2022-11-06T03:11:55;5.97;;;3.65;;
11394;SDS011;5753;54.402;10.220;2022-11-06T03:14:31;6.25;;;4.40;;
11394;SDS011;5753;54.402;10.220;2022-11-06T03:17:08;7.07;;;6.38;;
11394;SDS011;5753;54.402;10.220;2022-11-06T03:27:35;12.75;;;4.47;;
11394;SDS011;5753;54.402;10.220;2022-11-06T03:30:11;6.72;;;4.07;;
11394;SDS011;5753;54.402;10.220;2022-11-06T03:35:25;7.18;;;3.92;;
11394;SDS011;5753;54.402;10.220;2022-11-06T03:38:00;11.82;;;5.68;;
11394;SDS011;5753;54.402;10.220;2022-11-06T03:40:38;9.13;;;4.80;;
11394;SDS011;5753;54.402;10.220;2022-11-06T03:43:08;10.10;;;4.53;;
11394;SDS011;5753;54.402;10.220;2022-11-06T03:45:40;6.68;;;5.60;;
11394;SDS011;5753;54.402;10.220;2022-11-06T03:48:22;7.72;;;7.03;;
11394;SDS011;5753;54.402;10.220;2022-11-06T03:53:29;7.35;;;4.97;;
11394;SDS011;5753;54.402;10.220;2022-11-06T03:56:11;8.43;;;5.68;;
11394;SDS011;5753;54.402;10.220;2022-11-06T03:58:43;8.80;;;6.03;;
11394;SDS011;5753;54.402;10.220;2022-11-06T04:01:12;13.32;;;5.50;;
11394;SDS011;5753;54.402;10.220;2022-11-06T04:03:42;11.70;;;7.97;;
11394;SDS011;5753;54.402;10.220;2022-11-06T04:06:20;8.85;;;6.68;;
11394;SDS011;5753;54.402;10.220;2022-11-06T04:08:57;6.53;;;5.07;;
11394;SDS011;5753;54.402;10.220;2022-11-06T04:11:46;5.75;;;4.35;;
11394;SDS011;5753;54.402;10.220;2022-11-06T04:14:32;9.02;;;7.88;;
11394;SDS011;5753;54.402;10.220;2022-11-06T04:17:01;8.93;;;5.85;;
11394;SDS011;5753;54.402;10.220;2022-11-06T04:19:30;13.93;;;8.20;;
11394;SDS011;5753;54.402;10.220;2022-11-06T04:22:00;12.73;;;5.47;;
11394;SDS011;5753;54.402;10.220;2022-11-06T04:27:25;9.43;;;5.75;;
11394;SDS011;5753;54.402;10.220;2022-11-06T04:30:04;9.93;;;6.40;;
11394;SDS011;5753;54.402;10.220;2022-11-06T04:32:35;8.18;;;6.22;;
11394;SDS011;5753;54.402;10.220;2022-11-06T04:44:29;7.13;;;5.82;;
11394;SDS011;5753;54.402;10.220;2022-11-06T04:47:06;9.13;;;6.53;;
11394;SDS011;5753;54.402;10.220;2022-11-06T04:49:36;8.55;;;7.28;;
11394;SDS011;5753;54.402;10.220;2022-11-06T04:52:06;8.68;;;6.30;;
11394;SDS011;5753;54.402;10.220;2022-11-06T04:54:36;13.15;;;9.35;;
11394;SDS011;5753;54.402;10.220;2022-11-06T04:57:03;15.07;;;10.13;;
11394;SDS011;5753;54.402;10.220;2022-11-06T04:59:31;14.82;;;7.28;;
11394;SDS011;5753;54.402;10.220;2022-11-06T05:01:59;16.60;;;9.00;;
11394;SDS011;5753;54.402;10.220;2022-11-06T05:04:25;13.25;;;6.95;;
11394;SDS011;5753;54.402;10.220;2022-11-06T05:06:51;8.30;;;7.28;;
11394;SDS011;5753;54.402;10.220;2022-11-06T05:09:18;11.93;;;8.15;;
11394;SDS011;5753;54.402;10.220;2022-11-06T05:11:44;14.52;;;9.70;;
11394;SDS011;5753;54.402;10.220;2022-11-06T05:14:10;9.40;;;6.93;;
11394;SDS011;5753;54.402;10.220;2022-11-06T05:16:36;8.18;;;7.38;;
11394;SDS011;5753;54.402;10.220;2022-11-06T05:19:02;14.15;;;9.98;;
11394;SDS011;5753;54.402;10.220;2022-11-06T05:21:28;11.57;;;6.85;;
11394;SDS011;5753;54.402;10.220;2022-11-06T05:24:13;12.00;;;7.07;;
11394;SDS011;5753;54.402;10.220;2022-11-06T05:26:39;15.63;;;9.82;;
11394;SDS011;5753;54.402;10.220;2022-11-06T05:29:05;15.27;;;9.52;;
11394;SDS011;5753;54.402;10.220;2022-11-06T05:31:31;12.48;;;8.18;;
11394;SDS011;5753;54.402;10.220;2022-11-06T05:33:58;11.73;;;9.30;;
11394;SDS011;5753;54.402;10.220;2022-11-06T05:36:24;12.07;;;9.27;;
11394;SDS011;5753;54.402;10.220;2022-11-06T05:38:50;12.35;;;8.90;;
11394;SDS011;5753;54.402;10.220;2022-11-06T05:41:16;16.42;;;10.10;;
11394;SDS011;5753;54.402;10.220;2022-11-06T05:43:42;19.88;;;8.70;;
11394;SDS011;5753;54.402;10.220;2022-11-06T05:46:08;11.15;;;7.90;;
11394;SDS011;5753;54.402;10.220;2022-11-06T05:48:34;10.18;;;7.90;;
11394;SDS011;5753;54.402;10.220;2022-11-06T05:51:01;10.02;;;8.30;;
11394;SDS011;5753;54.402;10.220;2022-11-06T05:53:32;10.27;;;8.38;;
11394;SDS011;5753;54.402;10.220;2022-11-06T05:56:00;14.38;;;9.55;;
11394;SDS011;5753;54.402;10.220;2022-11-06T05:58:27;8.52;;;7.47;;
11394;SDS011;5753;54.402;10.220;2022-11-06T06:00:54;6.97;;;5.68;;
11394;SDS011;5753;54.402;10.220;2022-11-06T06:03:21;20.25;;;10.20;;
11394;SDS011;5753;54.402;10.220;2022-11-06T06:05:48;11.68;;;9.68;;
11394;SDS011;5753;54.402;10.220;2022-11-06T06:08:14;12.50;;;7.82;;
11394;SDS011;5753;54.402;10.220;2022-11-06T06:10:41;14.32;;;8.82;;
11394;SDS011;5753;54.402;10.220;2022-11-06T06:13:08;11.85;;;8.57;;
11394;SDS011;5753;54.402;10.220;2022-11-06T06:15:36;14.07;;;8.40;;
11394;SDS011;5753;54.402;10.220;2022-11-06T06:18:03;10.43;;;7.60;;
11394;SDS011;5753;54.402;10.220;2022-11-06T06:20:30;10.73;;;8.52;;
11394;SDS011;5753;54.402;10.220;2022-11-06T06:22:56;11.38;;;9.48;;
11394;SDS011;5753;54.402;10.220;2022-11-06T06:25:23;15.30;;;8.65;;
11394;SDS011;5753;54.402;10.220;2022-11-06T06:27:51;19.15;;;10.73;;
11394;SDS011;5753;54.402;10.220;2022-11-06T06:30:18;11.05;;;8.50;;
11394;SDS011;5753;54.402;10.220;2022-11-06T06:32:44;10.82;;;7.55;;
11394;SDS011;5753;54.402;10.220;2022-11-06T06:35:11;15.05;;;7.95;;
11394;SDS011;5753;54.402;10.220;2022-11-06T06:37:37;10.43;;;8.18;;
11394;SDS011;5753;54.402;10.220;2022-11-06T06:40:04;13.20;;;8.43;;
11394;SDS011;5753;54.402;10.220;2022-11-06T06:42:30;14.43;;;8.85;;
11394;SDS011;5753;54.402;10.220;2022-11-06T06:44:56;15.98;;;6.80;;
11394;SDS011;5753;54.402;10.220;2022-11-06T06:47:22;9.95;;;8.95;;
11394;SDS011;5753;54.402;10.220;2022-11-06T06:49:48;10.43;;;7.88;;
11394;SDS011;5753;54.402;10.220;2022-11-06T06:52:15;11.52;;;8.27;;
11394;SDS011;5753;54.402;10.220;2022-11-06T06:54:41;9.57;;;7.55;;
11394;SDS011;5753;54.402;10.220;2022-11-06T06:57:07;12.10;;;7.97;;
11394;SDS011;5753;54.402;10.220;2022-11-06T06:59:33;13.15;;;8.05;;
11394;SDS011;5753;54.402;10.220;2022-11-06T07:01:59;8.30;;;6.63;;
11394;SDS011;5753;54.402;10.220;2022-11-06T07:04:25;12.70;;;7.45;;
11394;SDS011;5753;54.402;10.220;2022-11-06T07:06:52;9.77;;;8.75;;
11394;SDS011;5753;54.402;10.220;2022-11-06T07:09:19;7.95;;;5.90;;
11394;SDS011;5753;54.402;10.220;2022-11-06T07:11:46;10.48;;;8.73;;
11394;SDS011;5753;54.402;10.220;2022-11-06T07:14:13;8.80;;;7.45;;
11394;SDS011;5753;54.402;10.220;2022-11-06T07:16:39;8.70;;;7.28;;
11394;SDS011;5753;54.402;10.220;2022-11-06T07:19:05;11.18;;;8.38;;
11394;SDS011;5753;54.402;10.220;2022-11-06T07:21:31;13.80;;;8.05;;
11394;SDS011;5753;54.402;10.220;2022-11-06T07:23:57;11.25;;;8.75;;
11394;SDS011;5753;54.402;10.220;2022-11-06T07:26:23;10.20;;;8.15;;
11394;SDS011;5753;54.402;10.220;2022-11-06T07:28:50;15.40;;;9.38;;
11394;SDS011;5753;54.402;10.220;2022-11-06T07:31:16;8.68;;;6.88;;
11394;SDS011;5753;54.402;10.220;2022-11-06T07:33:42;8.05;;;7.22;;
11394;SDS011;5753;54.402;10.220;2022-11-06T07:36:09;9.68;;;6.90;;
11394;SDS011;5753;54.402;10.220;2022-11-06T07:38:37;9.07;;;6.90;;
11394;SDS011;5753;54.402;10.220;2022-11-06T07:41:06;8.55;;;7.57;;
11394;SDS011;5753;54.402;10.220;2022-11-06T07:43:38;9.77;;;6.97;;
11394;SDS011;5753;54.402;10.220;2022-11-06T07:46:06;7.50;;;6.43;;
11394;SDS011;5753;54.402;10.220;2022-11-06T07:48:34;8.35;;;7.35;;
11394;SDS011;5753;54.402;10.220;2022-11-06T07:51:01;9.68;;;6.55;;
11394;SDS011;5753;54.402;10.220;2022-11-06T07:53:31;9.27;;;7.32;;
11394;SDS011;5753;54.402;10.220;2022-11-06T07:55:58;12.68;;;6.85;;
11394;SDS011;5753;54.402;10.220;2022-11-06T07:58:24;12.05;;;6.80;;
11394;SDS011;5753;54.402;10.220;2022-11-06T08:00:51;8.77;;;5.90;;
11394;SDS011;5753;54.402;10.220;2022-11-06T08:03:19;11.05;;;6.97;;
11394;SDS011;5753;54.402;10.220;2022-11-06T08:05:46;8.73;;;6.80;;
11394;SDS011;5753;54.402;10.220;2022-11-06T08:08:12;15.00;;;9.57;;
11394;SDS011;5753;54.402;10.220;2022-11-06T08:10:39;6.65;;;6.03;;
11394;SDS011;5753;54.402;10.220;2022-11-06T08:13:11;14.18;;;8.52;;
11394;SDS011;5753;54.402;10.220;2022-11-06T08:15:42;8.65;;;7.30;;
11394;SDS011;5753;54.402;10.220;2022-11-06T08:18:09;11.25;;;6.88;;
11394;SDS011;5753;54.402;10.220;2022-11-06T08:20:37;8.45;;;6.88;;
11394;SDS011;5753;54.402;10.220;2022-11-06T08:23:04;10.45;;;7.63;;
11394;SDS011;5753;54.402;10.220;2022-11-06T08:25:32;10.15;;;7.90;;
11394;SDS011;5753;54.402;10.220;2022-11-06T08:27:59;10.77;;;8.60;;
11394;SDS011;5753;54.402;10.220;2022-11-06T08:30:26;9.88;;;6.22;;
11394;SDS011;5753;54.402;10.220;2022-11-06T08:32:53;11.93;;;8.05;;
11394;SDS011;5753;54.402;10.220;2022-11-06T08:35:23;13.15;;;7.18;;
11394;SDS011;5753;54.402;10.220;2022-11-06T08:37:49;6.95;;;5.40;;
11394;SDS011;5753;54.402;10.220;2022-11-06T08:40:15;9.52;;;7.60;;
11394;SDS011;5753;54.402;10.220;2022-11-06T08:42:41;10.70;;;6.70;;
11394;SDS011;5753;54.402;10.220;2022-11-06T08:45:08;6.38;;;5.55;;
11394;SDS011;5753;54.402;10.220;2022-11-06T08:47:34;7.53;;;5.22;;
11394;SDS011;5753;54.402;10.220;2022-11-06T08:50:00;12.43;;;5.72;;
11394;SDS011;5753;54.402;10.220;2022-11-06T08:52:26;7.45;;;6.35;;
11394;SDS011;5753;54.402;10.220;2022-11-06T08:54:52;9.45;;;7.90;;
11394;SDS011;5753;54.402;10.220;2022-11-06T08:57:18;7.95;;;6.50;;
11394;SDS011;5753;54.402;10.220;2022-11-06T08:59:44;9.32;;;7.82;;
11394;SDS011;5753;54.402;10.220;2022-11-06T09:02:11;11.80;;;7.72;;
11394;SDS011;5753;54.402;10.220;2022-11-06T09:04:38;6.57;;;5.15;;
11394;SDS011;5753;54.402;10.220;2022-11-06T09:07:05;14.93;;;7.88;;
11394;SDS011;5753;54.402;10.220;2022-11-06T09:09:31;13.18;;;8.77;;
11394;SDS011;5753;54.402;10.220;2022-11-06T09:11:58;16.60;;;9.77;;
11394;SDS011;5753;54.402;10.220;2022-11-06T09:14:25;8.00;;;6.78;;
11394;SDS011;5753;54.402;10.220;2022-11-06T09:16:52;7.68;;;6.20;;
11394;SDS011;5753;54.402;10.220;2022-11-06T09:19:18;11.10;;;7.13;;
11394;SDS011;5753;54.402;10.220;2022-11-06T09:21:44;14.40;;;7.82;;
11394;SDS011;5753;54.402;10.220;2022-11-06T09:24:11;11.75;;;7.60;;
11394;SDS011;5753;54.402;10.220;2022-11-06T09:26:37;10.02;;;8.20;;
11394;SDS011;5753;54.402;10.220;2022-11-06T09:29:03;12.38;;;7.43;;
11394;SDS011;5753;54.402;10.220;2022-11-06T09:31:29;8.95;;;7.40;;
11394;SDS011;5753;54.402;10.220;2022-11-06T09:33:55;18.88;;;9.35;;
11394;SDS011;5753;54.402;10.220;2022-11-06T09:36:21;9.40;;;7.75;;
11394;SDS011;5753;54.402;10.220;2022-11-06T09:38:48;15.90;;;8.77;;
11394;SDS011;5753;54.402;10.220;2022-11-06T09:41:18;8.10;;;6.75;;
11394;SDS011;5753;54.402;10.220;2022-11-06T09:47:18;9.68;;;7.43;;
11394;SDS011;5753;54.402;10.220;2022-11-06T09:49:51;24.77;;;7.82;;
11394;SDS011;5753;54.402;10.220;2022-11-06T09:52:39;9.02;;;5.93;;
11394;SDS011;5753;54.402;10.220;2022-11-06T09:55:18;13.93;;;6.97;;
11394;SDS011;5753;54.402;10.220;2022-11-06T09:57:50;11.05;;;7.40;;
11394;SDS011;5753;54.402;10.220;2022-11-06T10:00:23;9.85;;;8.10;;
11394;SDS011;5753;54.402;10.220;2022-11-06T10:02:54;8.98;;;8.18;;
11394;SDS011;5753;54.402;10.220;2022-11-06T10:08:11;14.80;;;8.70;;
11394;SDS011;5753;54.402;10.220;2022-11-06T10:16:35;14.48;;;7.95;;
11394;SDS011;5753;54.402;10.220;2022-11-06T10:19:24;13.10;;;8.10;;
11394;SDS011;5753;54.402;10.220;2022-11-06T10:22:15;8.30;;;6.18;;
11394;SDS011;5753;54.402;10.220;2022-11-06T10:30:11;12.95;;;6.85;;
11394;SDS011;5753;54.402;10.220;2022-11-06T10:38:02;26.40;;;6.60;;
11394;SDS011;5753;54.402;10.220;2022-11-06T10:40:34;7.18;;;5.65;;
11394;SDS011;5753;54.402;10.220;2022-11-06T10:45:27;9.23;;;6.53;;
11394;SDS011;5753;54.402;10.220;2022-11-06T10:47:55;10.02;;;7.30;;
11394;SDS011;5753;54.402;10.220;2022-11-06T10:50:33;16.13;;;6.60;;
11394;SDS011;5753;54.402;10.220;2022-11-06T10:53:17;17.05;;;6.10;;
11394;SDS011;5753;54.402;10.220;2022-11-06T10:59:15;8.98;;;7.18;;
11394;SDS011;5753;54.402;10.220;2022-11-06T11:01:41;8.05;;;4.75;;
11394;SDS011;5753;54.402;10.220;2022-11-06T11:04:07;7.38;;;5.47;;
11394;SDS011;5753;54.402;10.220;2022-11-06T11:06:34;11.38;;;7.57;;
11394;SDS011;5753;54.402;10.220;2022-11-06T11:09:24;4.88;;;4.35;;
11394;SDS011;5753;54.402;10.220;2022-11-06T11:11:50;9.55;;;4.35;;
11394;SDS011;5753;54.402;10.220;2022-11-06T11:14:27;7.75;;;6.00;;
11394;SDS011;5753;54.402;10.220;2022-11-06T11:16:57;8.77;;;5.10;;
11394;SDS011;5753;54.402;10.220;2022-11-06T11:19:37;6.82;;;5.88;;
11394;SDS011;5753;54.402;10.220;2022-11-06T11:22:17;11.73;;;5.85;;
11394;SDS011;5753;54.402;10.220;2022-11-06T11:25:04;6.00;;;5.20;;
11394;SDS011;5753;54.402;10.220;2022-11-06T11:27:36;11.48;;;4.57;;
11394;SDS011;5753;54.402;10.220;2022-11-06T11:30:10;5.15;;;3.80;;
11394;SDS011;5753;54.402;10.220;2022-11-06T11:32:46;9.90;;;4.70;;
11394;SDS011;5753;54.402;10.220;2022-11-06T11:35:15;5.10;;;4.57;;
11394;SDS011;5753;54.402;10.220;2022-11-06T11:37:44;8.13;;;3.80;;
11394;SDS011;5753;54.402;10.220;2022-11-06T11:51:15;6.10;;;4.25;;
11394;SDS011;5753;54.402;10.220;2022-11-06T11:53:50;9.82;;;3.08;;
11394;SDS011;5753;54.402;10.220;2022-11-06T11:56:19;5.07;;;3.40;;
11394;SDS011;5753;54.402;10.220;2022-11-06T11:58:53;6.28;;;3.30;;
11394;SDS011;5753;54.402;10.220;2022-11-06T12:01:30;6.22;;;3.15;;
11394;SDS011;5753;54.402;10.220;2022-11-06T12:04:12;3.58;;;2.80;;
11394;SDS011;5753;54.402;10.220;2022-11-06T12:07:04;4.47;;;2.90;;
11394;SDS011;5753;54.402;10.220;2022-11-06T12:09:32;3.30;;;2.42;;
11394;SDS011;5753;54.402;10.220;2022-11-06T12:12:05;3.78;;;3.42;;
11394;SDS011;5753;54.402;10.220;2022-11-06T12:15:02;4.47;;;3.72;;
11394;SDS011;5753;54.402;10.220;2022-11-06T12:18:08;3.30;;;2.90;;
11394;SDS011;5753;54.402;10.220;2022-11-06T12:29:00;7.22;;;2.72;;
11394;SDS011;5753;54.402;10.220;2022-11-06T12:34:24;2.42;;;2.22;;
11394;SDS011;5753;54.402;10.220;2022-11-06T12:54:17;4.50;;;4.00;;
11394;SDS011;5753;54.402;10.220;2022-11-06T13:00:04;9.73;;;3.30;;
11394;SDS011;5753;54.402;10.220;2022-11-06T13:16:27;5.30;;;2.38;;
11394;SDS011;5753;54.402;10.220;2022-11-06T13:18:57;3.63;;;3.22;;
11394;SDS011;5753;54.402;10.220;2022-11-06T13:24:10;5.20;;;2.55;;
11394;SDS011;5753;54.402;10.220;2022-11-06T13:26:42;4.65;;;1.83;;
11394;SDS011;5753;54.402;10.220;2022-11-06T13:31:44;4.25;;;2.50;;
11394;SDS011;5753;54.402;10.220;2022-11-06T13:36:46;4.20;;;3.30;;
11394;SDS011;5753;54.402;10.220;2022-11-06T13:41:44;7.50;;;2.47;;
11394;SDS011;5753;54.402;10.220;2022-11-06T13:44:11;7.15;;;2.22;;
11394;SDS011;5753;54.402;10.220;2022-11-06T13:52:15;4.88;;;1.52;;
11394;SDS011;5753;54.402;10.220;2022-11-06T13:55:15;1.52;;;1.33;;
11394;SDS011;5753;54.402;10.220;2022-11-06T13:57:53;2.28;;;2.03;;
11394;SDS011;5753;54.402;10.220;2022-11-06T14:08:50;2.58;;;2.05;;
11394;SDS011;5753;54.402;10.220;2022-11-06T14:11:37;4.45;;;2.40;;
11394;SDS011;5753;54.402;10.220;2022-11-06T14:14:10;2.53;;;1.80;;
11394;SDS011;5753;54.402;10.220;2022-11-06T14:16:37;2.58;;;1.73;;
11394;SDS011;5753;54.402;10.220;2022-11-06T14:19:12;2.45;;;1.90;;
11394;SDS011;5753;54.402;10.220;2022-11-06T14:21:46;5.20;;;1.88;;
11394;SDS011;5753;54.402;10.220;2022-11-06T14:26:58;8.43;;;2.28;;
11394;SDS011;5753;54.402;10.220;2022-11-06T14:32:02;3.58;;;1.77;;
11394;SDS011;5753;54.402;10.220;2022-11-06T14:34:39;2.90;;;1.90;;
11394;SDS011;5753;54.402;10.220;2022-11-06T14:47:38;4.88;;;2.67;;
11394;SDS011;5753;54.402;10.220;2022-11-06T14:53:02;8.50;;;2.72;;
11394;SDS011;5753;54.402;10.220;2022-11-06T14:55:54;5.42;;;1.98;;
11394;SDS011;5753;54.402;10.220;2022-11-06T14:58:32;4.03;;;2.67;;
11394;SDS011;5753;54.402;10.220;2022-11-06T15:16:49;4.10;;;2.50;;
11394;SDS011;5753;54.402;10.220;2022-11-06T15:27:42;6.72;;;3.15;;
11394;SDS011;5753;54.402;10.220;2022-11-06T15:30:17;5.55;;;2.35;;
11394;SDS011;5753;54.402;10.220;2022-11-06T15:32:45;5.63;;;3.88;;
11394;SDS011;5753;54.402;10.220;2022-11-06T15:37:44;3.95;;;3.55;;
11394;SDS011;5753;54.402;10.220;2022-11-06T15:40:21;5.05;;;2.83;;
11394;SDS011;5753;54.402;10.220;2022-11-06T15:42:49;7.53;;;3.58;;
11394;SDS011;5753;54.402;10.220;2022-11-06T15:47:51;4.40;;;2.35;;
11394;SDS011;5753;54.402;10.220;2022-11-06T15:50:32;4.25;;;2.85;;
11394;SDS011;5753;54.402;10.220;2022-11-06T15:55:53;3.30;;;2.45;;
11394;SDS011;5753;54.402;10.220;2022-11-06T15:58:31;7.38;;;3.55;;
11394;SDS011;5753;54.402;10.220;2022-11-06T16:01:02;6.18;;;3.53;;
11394;SDS011;5753;54.402;10.220;2022-11-06T16:03:30;6.57;;;3.33;;
11394;SDS011;5753;54.402;10.220;2022-11-06T16:06:06;7.00;;;2.83;;
11394;SDS011;5753;54.402;10.220;2022-11-06T16:08:33;7.15;;;3.30;;
11394;SDS011;5753;54.402;10.220;2022-11-06T16:11:01;3.35;;;2.13;;
11394;SDS011;5753;54.402;10.220;2022-11-06T16:13:28;9.32;;;3.42;;
11394;SDS011;5753;54.402;10.220;2022-11-06T16:16:01;3.50;;;2.70;;
11394;SDS011;5753;54.402;10.220;2022-11-06T16:18:41;3.92;;;3.13;;
11394;SDS011;5753;54.402;10.220;2022-11-06T16:21:10;3.20;;;2.90;;
11394;SDS011;5753;54.402;10.220;2022-11-06T16:26:34;4.32;;;2.33;;
11394;SDS011;5753;54.402;10.220;2022-11-06T16:29:07;3.20;;;2.65;;
11394;SDS011;5753;54.402;10.220;2022-11-06T16:32:04;4.65;;;3.15;;
11394;SDS011;5753;54.402;10.220;2022-11-06T16:34:34;3.53;;;3.22;;
11394;SDS011;5753;54.402;10.220;2022-11-06T16:45:09;3.78;;;2.58;;
11394;SDS011;5753;54.402;10.220;2022-11-06T16:53:17;8.65;;;3.75;;
11394;SDS011;5753;54.402;10.220;2022-11-06T16:55:55;5.00;;;3.83;;
11394;SDS011;5753;54.402;10.220;2022-11-06T16:58:21;10.52;;;5.38;;
11394;SDS011;5753;54.402;10.220;2022-11-06T17:00:55;5.40;;;4.35;;
11394;SDS011;5753;54.402;10.220;2022-11-06T17:03:27;4.20;;;3.53;;
11394;SDS011;5753;54.402;10.220;2022-11-06T17:06:04;6.22;;;2.90;;
11394;SDS011;5753;54.402;10.220;2022-11-06T17:11:23;8.38;;;2.60;;
11394;SDS011;5753;54.402;10.220;2022-11-06T17:13:48;3.55;;;3.10;;
11394;SDS011;5753;54.402;10.220;2022-11-06T17:16:16;2.75;;;2.35;;
11394;SDS011;5753;54.402;10.220;2022-11-06T17:18:44;3.38;;;3.03;;
11394;SDS011;5753;54.402;10.220;2022-11-06T17:23:42;6.38;;;3.42;;
11394;SDS011;5753;54.402;10.220;2022-11-06T17:26:23;2.83;;;2.17;;
11394;SDS011;5753;54.402;10.220;2022-11-06T17:28:52;6.65;;;3.17;;
11394;SDS011;5753;54.402;10.220;2022-11-06T17:31:23;3.90;;;3.53;;
11394;SDS011;5753;54.402;10.220;2022-11-06T17:33:50;6.03;;;2.78;;
11394;SDS011;5753;54.402;10.220;2022-11-06T17:36:20;2.35;;;2.15;;
11394;SDS011;5753;54.402;10.220;2022-11-06T17:38:55;3.75;;;2.53;;
11394;SDS011;5753;54.402;10.220;2022-11-06T17:41:22;2.72;;;2.50;;
11394;SDS011;5753;54.402;10.220;2022-11-06T17:46:25;8.13;;;2.50;;
11394;SDS011;5753;54.402;10.220;2022-11-06T17:48:52;5.47;;;3.05;;
11394;SDS011;5753;54.402;10.220;2022-11-06T17:51:19;4.10;;;3.70;;
11394;SDS011;5753;54.402;10.220;2022-11-06T17:54:04;8.95;;;3.17;;
11394;SDS011;5753;54.402;10.220;2022-11-06T17:56:31;3.88;;;2.33;;
11394;SDS011;5753;54.402;10.220;2022-11-06T17:58:57;6.32;;;3.28;;
11394;SDS011;5753;54.402;10.220;2022-11-06T18:01:23;3.75;;;2.92;;
11394;SDS011;5753;54.402;10.220;2022-11-06T18:03:50;3.20;;;2.15;;
11394;SDS011;5753;54.402;10.220;2022-11-06T18:06:16;3.10;;;2.03;;
11394;SDS011;5753;54.402;10.220;2022-11-06T18:08:42;5.78;;;2.17;;
11394;SDS011;5753;54.402;10.220;2022-11-06T18:11:09;5.72;;;3.00;;
11394;SDS011;5753;54.402;10.220;2022-11-06T18:13:35;4.22;;;3.35;;
11394;SDS011;5753;54.402;10.220;2022-11-06T18:16:02;5.40;;;4.18;;
11394;SDS011;5753;54.402;10.220;2022-11-06T18:18:37;4.55;;;2.67;;
11394;SDS011;5753;54.402;10.220;2022-11-06T18:21:04;7.40;;;3.50;;
11394;SDS011;5753;54.402;10.220;2022-11-06T18:23:30;11.15;;;4.78;;
11394;SDS011;5753;54.402;10.220;2022-11-06T18:25:57;7.68;;;3.22;;
11394;SDS011;5753;54.402;10.220;2022-11-06T18:28:23;3.08;;;2.78;;
11394;SDS011;5753;54.402;10.220;2022-11-06T18:30:50;8.00;;;3.80;;
11394;SDS011;5753;54.402;10.220;2022-11-06T18:33:17;4.47;;;2.80;;
11394;SDS011;5753;54.402;10.220;2022-11-06T18:35:43;2.85;;;1.77;;
11394;SDS011;5753;54.402;10.220;2022-11-06T18:38:11;3.85;;;2.53;;
11394;SDS011;5753;54.402;10.220;2022-11-06T18:40:38;5.25;;;2.30;;
11394;SDS011;5753;54.402;10.220;2022-11-06T18:43:05;4.47;;;3.65;;
11394;SDS011;5753;54.402;10.220;2022-11-06T18:45:31;6.75;;;3.08;;